sensor_id;sensor_type;location;lat;lon;timestamp;P1;durP1;ratioP1;P2;durP2;ratioP2
54679;SDS011;40578;53.178;5.846;2023-07-22T00:01:00;5.43;;;2.23;;
54679;SDS011;40578;53.178;5.846;2023-07-22T00:03:25;7.10;;;2.10;;
54679;SDS011;40578;53.178;5.846;2023-07-22T00:08:30;6.30;;;2.20;;
54679;SDS011;40578;53.178;5.846;2023-07-22T00:10:56;3.57;;;1.93;;
54679;SDS011;40578;53.178;5.846;2023-07-22T00:13:21;7.20;;;2.10;;
54679;SDS011;40578;53.178;5.846;2023-07-22T00:15:47;4.67;;;1.93;;
54679;SDS011;40578;53.178;5.846;2023-07-22T00:18:13;7.00;;;2.20;;
54679;SDS011;40578;53.178;5.846;2023-07-22T00:20:39;4.03;;;2.17;;
54679;SDS011;40578;53.178;5.846;2023-07-22T00:23:04;3.80;;;2.17;;
54679;SDS011;40578;53.178;5.846;2023-07-22T00:25:30;4.53;;;2.00;;
54679;SDS011;40578;53.178;5.846;2023-07-22T00:27:55;6.97;;;2.50;;
54679;SDS011;40578;53.178;5.846;2023-07-22T00:30:22;5.72;;;2.17;;
54679;SDS011;40578;53.178;5.846;2023-07-22T00:32:47;6.70;;;2.53;;
54679;SDS011;40578;53.178;5.846;2023-07-22T00:35:13;4.77;;;2.60;;
54679;SDS011;40578;53.178;5.846;2023-07-22T00:37:38;6.53;;;2.57;;
54679;SDS011;40578;53.178;5.846;2023-07-22T00:40:04;6.90;;;2.67;;
54679;SDS011;40578;53.178;5.846;2023-07-22T00:42:32;7.00;;;2.50;;
54679;SDS011;40578;53.178;5.846;2023-07-22T00:44:57;4.80;;;2.50;;
54679;SDS011;40578;53.178;5.846;2023-07-22T00:47:23;3.80;;;2.37;;
54679;SDS011;40578;53.178;5.846;2023-07-22T00:49:49;6.20;;;2.40;;
54679;SDS011;40578;53.178;5.846;2023-07-22T00:52:15;4.72;;;2.30;;
54679;SDS011;40578;53.178;5.846;2023-07-22T00:54:44;4.63;;;2.40;;
54679;SDS011;40578;53.178;5.846;2023-07-22T00:57:09;5.40;;;2.37;;
54679;SDS011;40578;53.178;5.846;2023-07-22T00:59:37;7.13;;;3.00;;
54679;SDS011;40578;53.178;5.846;2023-07-22T01:02:04;6.25;;;2.25;;
54679;SDS011;40578;53.178;5.846;2023-07-22T01:04:29;5.70;;;2.30;;
54679;SDS011;40578;53.178;5.846;2023-07-22T01:06:58;7.35;;;2.80;;
54679;SDS011;40578;53.178;5.846;2023-07-22T01:09:24;5.53;;;2.30;;
54679;SDS011;40578;53.178;5.846;2023-07-22T01:11:49;7.37;;;2.70;;
54679;SDS011;40578;53.178;5.846;2023-07-22T01:14:15;7.50;;;2.23;;
54679;SDS011;40578;53.178;5.846;2023-07-22T01:16:41;8.23;;;2.30;;
54679;SDS011;40578;53.178;5.846;2023-07-22T01:19:07;8.20;;;2.42;;
54679;SDS011;40578;53.178;5.846;2023-07-22T01:21:34;6.55;;;2.20;;
54679;SDS011;40578;53.178;5.846;2023-07-22T01:23:59;4.13;;;2.47;;
54679;SDS011;40578;53.178;5.846;2023-07-22T01:26:25;6.80;;;2.97;;
54679;SDS011;40578;53.178;5.846;2023-07-22T01:28:51;7.15;;;2.40;;
54679;SDS011;40578;53.178;5.846;2023-07-22T01:31:27;4.93;;;2.50;;
54679;SDS011;40578;53.178;5.846;2023-07-22T01:33:53;6.73;;;2.50;;
54679;SDS011;40578;53.178;5.846;2023-07-22T01:36:18;5.73;;;2.50;;
54679;SDS011;40578;53.178;5.846;2023-07-22T01:38:44;5.00;;;2.40;;
54679;SDS011;40578;53.178;5.846;2023-07-22T01:41:09;8.57;;;2.53;;
54679;SDS011;40578;53.178;5.846;2023-07-22T01:43:35;5.83;;;2.20;;
54679;SDS011;40578;53.178;5.846;2023-07-22T01:46:00;8.00;;;2.73;;
54679;SDS011;40578;53.178;5.846;2023-07-22T01:48:26;8.98;;;2.67;;
54679;SDS011;40578;53.178;5.846;2023-07-22T01:50:53;9.00;;;2.80;;
54679;SDS011;40578;53.178;5.846;2023-07-22T01:53:18;4.27;;;2.70;;
54679;SDS011;40578;53.178;5.846;2023-07-22T01:55:45;5.95;;;2.88;;
54679;SDS011;40578;53.178;5.846;2023-07-22T01:58:11;5.63;;;3.10;;
54679;SDS011;40578;53.178;5.846;2023-07-22T02:00:36;8.27;;;3.67;;
54679;SDS011;40578;53.178;5.846;2023-07-22T02:03:02;8.03;;;3.43;;
54679;SDS011;40578;53.178;5.846;2023-07-22T02:05:28;9.27;;;3.10;;
54679;SDS011;40578;53.178;5.846;2023-07-22T02:10:21;7.70;;;3.33;;
54679;SDS011;40578;53.178;5.846;2023-07-22T02:12:47;10.70;;;3.13;;
54679;SDS011;40578;53.178;5.846;2023-07-22T02:15:13;5.10;;;2.90;;
54679;SDS011;40578;53.178;5.846;2023-07-22T02:17:38;7.00;;;3.50;;
54679;SDS011;40578;53.178;5.846;2023-07-22T02:20:04;6.00;;;3.43;;
54679;SDS011;40578;53.178;5.846;2023-07-22T02:22:30;7.05;;;3.40;;
54679;SDS011;40578;53.178;5.846;2023-07-22T02:24:56;9.20;;;3.30;;
54679;SDS011;40578;53.178;5.846;2023-07-22T02:27:22;7.97;;;3.00;;
54679;SDS011;40578;53.178;5.846;2023-07-22T02:29:47;6.90;;;3.40;;
54679;SDS011;40578;53.178;5.846;2023-07-22T02:32:13;7.60;;;3.40;;
54679;SDS011;40578;53.178;5.846;2023-07-22T02:34:38;6.10;;;3.17;;
54679;SDS011;40578;53.178;5.846;2023-07-22T02:37:04;6.33;;;3.13;;
54679;SDS011;40578;53.178;5.846;2023-07-22T02:39:30;6.83;;;3.57;;
54679;SDS011;40578;53.178;5.846;2023-07-22T02:41:55;7.43;;;3.43;;
54679;SDS011;40578;53.178;5.846;2023-07-22T02:44:21;9.00;;;3.70;;
54679;SDS011;40578;53.178;5.846;2023-07-22T02:46:47;7.57;;;3.57;;
54679;SDS011;40578;53.178;5.846;2023-07-22T02:49:13;7.55;;;3.83;;
54679;SDS011;40578;53.178;5.846;2023-07-22T02:51:39;8.23;;;3.87;;
54679;SDS011;40578;53.178;5.846;2023-07-22T02:54:04;11.00;;;4.33;;
54679;SDS011;40578;53.178;5.846;2023-07-22T02:56:30;11.50;;;3.73;;
54679;SDS011;40578;53.178;5.846;2023-07-22T02:58:55;6.97;;;3.47;;
54679;SDS011;40578;53.178;5.846;2023-07-22T03:01:21;9.53;;;3.77;;
54679;SDS011;40578;53.178;5.846;2023-07-22T03:03:46;6.97;;;3.83;;
54679;SDS011;40578;53.178;5.846;2023-07-22T03:06:12;9.73;;;3.70;;
54679;SDS011;40578;53.178;5.846;2023-07-22T03:11:04;8.35;;;4.30;;
54679;SDS011;40578;53.178;5.846;2023-07-22T03:13:30;9.27;;;4.17;;
54679;SDS011;40578;53.178;5.846;2023-07-22T03:15:56;9.70;;;4.10;;
54679;SDS011;40578;53.178;5.846;2023-07-22T03:18:23;10.32;;;4.40;;
54679;SDS011;40578;53.178;5.846;2023-07-22T03:20:48;8.77;;;4.13;;
54679;SDS011;40578;53.178;5.846;2023-07-22T03:23:14;13.30;;;4.50;;
54679;SDS011;40578;53.178;5.846;2023-07-22T03:25:40;7.90;;;4.27;;
54679;SDS011;40578;53.178;5.846;2023-07-22T03:28:06;8.38;;;4.40;;
54679;SDS011;40578;53.178;5.846;2023-07-22T03:30:32;8.68;;;4.63;;
54679;SDS011;40578;53.178;5.846;2023-07-22T03:32:58;12.38;;;4.97;;
54679;SDS011;40578;53.178;5.846;2023-07-22T03:35:25;9.25;;;4.78;;
54679;SDS011;40578;53.178;5.846;2023-07-22T03:37:51;10.55;;;5.00;;
54679;SDS011;40578;53.178;5.846;2023-07-22T03:40:17;8.70;;;4.40;;
54679;SDS011;40578;53.178;5.846;2023-07-22T03:42:50;10.20;;;4.95;;
54679;SDS011;40578;53.178;5.846;2023-07-22T03:45:17;11.13;;;5.05;;
54679;SDS011;40578;53.178;5.846;2023-07-22T03:47:43;10.95;;;5.70;;
54679;SDS011;40578;53.178;5.846;2023-07-22T03:50:10;12.48;;;5.20;;
54679;SDS011;40578;53.178;5.846;2023-07-22T03:52:36;10.40;;;5.57;;
54679;SDS011;40578;53.178;5.846;2023-07-22T03:55:02;12.00;;;5.40;;
54679;SDS011;40578;53.178;5.846;2023-07-22T03:57:28;13.18;;;6.13;;
54679;SDS011;40578;53.178;5.846;2023-07-22T03:59:54;10.93;;;5.78;;
54679;SDS011;40578;53.178;5.846;2023-07-22T04:02:20;11.02;;;5.10;;
54679;SDS011;40578;53.178;5.846;2023-07-22T04:04:46;10.35;;;5.50;;
54679;SDS011;40578;53.178;5.846;2023-07-22T04:07:12;14.63;;;5.23;;
54679;SDS011;40578;53.178;5.846;2023-07-22T04:09:38;12.40;;;5.83;;
54679;SDS011;40578;53.178;5.846;2023-07-22T04:12:03;10.33;;;5.57;;
54679;SDS011;40578;53.178;5.846;2023-07-22T04:14:29;11.88;;;5.38;;
54679;SDS011;40578;53.178;5.846;2023-07-22T04:16:55;15.13;;;5.87;;
54679;SDS011;40578;53.178;5.846;2023-07-22T04:19:21;12.77;;;5.93;;
54679;SDS011;40578;53.178;5.846;2023-07-22T04:21:46;13.63;;;5.60;;
54679;SDS011;40578;53.178;5.846;2023-07-22T04:24:12;12.03;;;5.93;;
54679;SDS011;40578;53.178;5.846;2023-07-22T04:26:37;13.70;;;6.60;;
54679;SDS011;40578;53.178;5.846;2023-07-22T04:29:03;14.98;;;7.10;;
54679;SDS011;40578;53.178;5.846;2023-07-22T04:31:29;16.57;;;6.77;;
54679;SDS011;40578;53.178;5.846;2023-07-22T04:33:55;18.47;;;7.37;;
54679;SDS011;40578;53.178;5.846;2023-07-22T04:36:22;17.92;;;7.60;;
54679;SDS011;40578;53.178;5.846;2023-07-22T04:38:47;16.53;;;8.20;;
54679;SDS011;40578;53.178;5.846;2023-07-22T04:41:13;17.40;;;8.33;;
54679;SDS011;40578;53.178;5.846;2023-07-22T04:43:39;18.00;;;8.57;;
54679;SDS011;40578;53.178;5.846;2023-07-22T04:46:05;17.03;;;8.53;;
54679;SDS011;40578;53.178;5.846;2023-07-22T04:48:31;21.98;;;9.63;;
54679;SDS011;40578;53.178;5.846;2023-07-22T04:50:57;18.20;;;8.70;;
54679;SDS011;40578;53.178;5.846;2023-07-22T04:53:22;18.40;;;8.70;;
54679;SDS011;40578;53.178;5.846;2023-07-22T04:55:48;18.93;;;8.57;;
54679;SDS011;40578;53.178;5.846;2023-07-22T04:58:13;19.93;;;8.70;;
54679;SDS011;40578;53.178;5.846;2023-07-22T05:00:39;20.80;;;9.10;;
54679;SDS011;40578;53.178;5.846;2023-07-22T05:03:06;18.73;;;8.65;;
54679;SDS011;40578;53.178;5.846;2023-07-22T05:05:32;24.97;;;9.47;;
54679;SDS011;40578;53.178;5.846;2023-07-22T05:07:58;18.75;;;8.68;;
54679;SDS011;40578;53.178;5.846;2023-07-22T05:10:23;20.60;;;8.87;;
54679;SDS011;40578;53.178;5.846;2023-07-22T05:12:49;18.57;;;8.83;;
54679;SDS011;40578;53.178;5.846;2023-07-22T05:15:14;20.87;;;8.70;;
54679;SDS011;40578;53.178;5.846;2023-07-22T05:17:40;18.87;;;8.97;;
54679;SDS011;40578;53.178;5.846;2023-07-22T05:20:06;18.17;;;9.13;;
54679;SDS011;40578;53.178;5.846;2023-07-22T05:22:35;18.63;;;8.93;;
54679;SDS011;40578;53.178;5.846;2023-07-22T05:25:01;19.98;;;8.85;;
54679;SDS011;40578;53.178;5.846;2023-07-22T05:27:30;19.08;;;9.30;;
54679;SDS011;40578;53.178;5.846;2023-07-22T05:29:55;18.93;;;9.37;;
54679;SDS011;40578;53.178;5.846;2023-07-22T05:32:21;18.93;;;9.57;;
54679;SDS011;40578;53.178;5.846;2023-07-22T05:34:47;18.03;;;8.53;;
54679;SDS011;40578;53.178;5.846;2023-07-22T05:37:13;18.08;;;8.25;;
54679;SDS011;40578;53.178;5.846;2023-07-22T05:39:38;17.83;;;8.23;;
54679;SDS011;40578;53.178;5.846;2023-07-22T05:42:04;17.27;;;8.60;;
54679;SDS011;40578;53.178;5.846;2023-07-22T05:44:30;17.63;;;8.23;;
54679;SDS011;40578;53.178;5.846;2023-07-22T05:46:55;16.67;;;8.73;;
54679;SDS011;40578;53.178;5.846;2023-07-22T05:49:22;17.03;;;8.83;;
54679;SDS011;40578;53.178;5.846;2023-07-22T05:51:47;19.83;;;9.07;;
54679;SDS011;40578;53.178;5.846;2023-07-22T05:54:13;21.50;;;9.90;;
54679;SDS011;40578;53.178;5.846;2023-07-22T05:56:39;18.50;;;8.77;;
54679;SDS011;40578;53.178;5.846;2023-07-22T05:59:05;18.15;;;9.07;;
54679;SDS011;40578;53.178;5.846;2023-07-22T06:01:31;15.97;;;8.77;;
54679;SDS011;40578;53.178;5.846;2023-07-22T06:03:57;18.20;;;9.43;;
54679;SDS011;40578;53.178;5.846;2023-07-22T06:06:23;17.58;;;8.85;;
54679;SDS011;40578;53.178;5.846;2023-07-22T06:08:49;17.53;;;9.10;;
54679;SDS011;40578;53.178;5.846;2023-07-22T06:11:14;19.63;;;10.27;;
54679;SDS011;40578;53.178;5.846;2023-07-22T06:13:40;20.93;;;10.57;;
54679;SDS011;40578;53.178;5.846;2023-07-22T06:16:05;18.37;;;10.17;;
54679;SDS011;40578;53.178;5.846;2023-07-22T06:18:31;22.40;;;10.70;;
54679;SDS011;40578;53.178;5.846;2023-07-22T06:20:57;22.17;;;10.60;;
54679;SDS011;40578;53.178;5.846;2023-07-22T06:23:22;18.30;;;9.97;;
54679;SDS011;40578;53.178;5.846;2023-07-22T06:25:48;20.77;;;10.03;;
54679;SDS011;40578;53.178;5.846;2023-07-22T06:28:13;16.63;;;9.53;;
54679;SDS011;40578;53.178;5.846;2023-07-22T06:30:39;21.13;;;10.30;;
54679;SDS011;40578;53.178;5.846;2023-07-22T06:33:05;19.30;;;10.13;;
54679;SDS011;40578;53.178;5.846;2023-07-22T06:35:30;19.13;;;9.60;;
54679;SDS011;40578;53.178;5.846;2023-07-22T06:37:56;19.63;;;10.07;;
54679;SDS011;40578;53.178;5.846;2023-07-22T06:40:21;19.00;;;9.83;;
54679;SDS011;40578;53.178;5.846;2023-07-22T06:42:47;19.83;;;9.97;;
54679;SDS011;40578;53.178;5.846;2023-07-22T06:45:13;18.17;;;10.00;;
54679;SDS011;40578;53.178;5.846;2023-07-22T06:47:38;17.80;;;9.53;;
54679;SDS011;40578;53.178;5.846;2023-07-22T06:50:04;20.30;;;10.73;;
54679;SDS011;40578;53.178;5.846;2023-07-22T06:52:31;18.35;;;10.25;;
54679;SDS011;40578;53.178;5.846;2023-07-22T06:57:22;20.00;;;10.95;;
54679;SDS011;40578;53.178;5.846;2023-07-22T06:59:51;21.10;;;10.52;;
54679;SDS011;40578;53.178;5.846;2023-07-22T07:02:18;19.60;;;10.65;;
54679;SDS011;40578;53.178;5.846;2023-07-22T07:04:44;25.80;;;10.27;;
54679;SDS011;40578;53.178;5.846;2023-07-22T07:09:37;20.77;;;10.85;;
54679;SDS011;40578;53.178;5.846;2023-07-22T07:12:03;20.70;;;10.30;;
54679;SDS011;40578;53.178;5.846;2023-07-22T07:14:29;18.15;;;11.05;;
54679;SDS011;40578;53.178;5.846;2023-07-22T07:16:55;16.67;;;9.03;;
54679;SDS011;40578;53.178;5.846;2023-07-22T07:19:20;16.43;;;8.73;;
54679;SDS011;40578;53.178;5.846;2023-07-22T07:21:46;13.77;;;7.97;;
54679;SDS011;40578;53.178;5.846;2023-07-22T07:24:12;14.77;;;8.10;;
54679;SDS011;40578;53.178;5.846;2023-07-22T07:26:38;13.15;;;8.07;;
54679;SDS011;40578;53.178;5.846;2023-07-22T07:29:04;24.00;;;8.83;;
54679;SDS011;40578;53.178;5.846;2023-07-22T07:31:29;13.50;;;7.60;;
54679;SDS011;40578;53.178;5.846;2023-07-22T07:33:55;14.40;;;8.53;;
54679;SDS011;40578;53.178;5.846;2023-07-22T07:36:21;15.20;;;8.53;;
54679;SDS011;40578;53.178;5.846;2023-07-22T07:38:46;13.30;;;7.90;;
54679;SDS011;40578;53.178;5.846;2023-07-22T07:41:12;14.63;;;7.63;;
54679;SDS011;40578;53.178;5.846;2023-07-22T07:43:39;16.77;;;9.43;;
54679;SDS011;40578;53.178;5.846;2023-07-22T07:46:19;15.50;;;8.23;;
54679;SDS011;40578;53.178;5.846;2023-07-22T07:51:17;13.82;;;8.32;;
54679;SDS011;40578;53.178;5.846;2023-07-22T07:53:45;13.52;;;8.15;;
54679;SDS011;40578;53.178;5.846;2023-07-22T07:56:12;11.63;;;7.15;;
54679;SDS011;40578;53.178;5.846;2023-07-22T07:58:39;14.65;;;7.25;;
54679;SDS011;40578;53.178;5.846;2023-07-22T08:01:05;10.63;;;6.43;;
54679;SDS011;40578;53.178;5.846;2023-07-22T08:03:31;10.52;;;6.20;;
54679;SDS011;40578;53.178;5.846;2023-07-22T08:05:57;10.60;;;6.32;;
54679;SDS011;40578;53.178;5.846;2023-07-22T08:08:23;11.27;;;6.03;;
54679;SDS011;40578;53.178;5.846;2023-07-22T08:11:05;11.13;;;6.50;;
54679;SDS011;40578;53.178;5.846;2023-07-22T08:13:36;10.15;;;6.18;;
54679;SDS011;40578;53.178;5.846;2023-07-22T08:18:29;11.00;;;5.55;;
54679;SDS011;40578;53.178;5.846;2023-07-22T08:20:55;12.63;;;7.18;;
54679;SDS011;40578;53.178;5.846;2023-07-22T08:23:21;9.30;;;6.30;;
54679;SDS011;40578;53.178;5.846;2023-07-22T08:25:47;8.73;;;5.18;;
54679;SDS011;40578;53.178;5.846;2023-07-22T08:28:13;8.40;;;5.10;;
54679;SDS011;40578;53.178;5.846;2023-07-22T08:30:39;7.97;;;4.63;;
54679;SDS011;40578;53.178;5.846;2023-07-22T08:33:09;7.57;;;4.78;;
54679;SDS011;40578;53.178;5.846;2023-07-22T08:35:37;9.65;;;5.00;;
54679;SDS011;40578;53.178;5.846;2023-07-22T08:38:03;9.93;;;5.25;;
54679;SDS011;40578;53.178;5.846;2023-07-22T08:40:39;9.23;;;5.10;;
54679;SDS011;40578;53.178;5.846;2023-07-22T08:43:09;12.85;;;5.40;;
54679;SDS011;40578;53.178;5.846;2023-07-22T08:45:36;8.88;;;4.78;;
54679;SDS011;40578;53.178;5.846;2023-07-22T08:48:06;8.85;;;4.85;;
54679;SDS011;40578;53.178;5.846;2023-07-22T08:50:36;8.32;;;4.88;;
54679;SDS011;40578;53.178;5.846;2023-07-22T08:53:16;8.82;;;4.68;;
54679;SDS011;40578;53.178;5.846;2023-07-22T08:55:44;7.90;;;4.90;;
54679;SDS011;40578;53.178;5.846;2023-07-22T08:58:11;8.88;;;5.15;;
54679;SDS011;40578;53.178;5.846;2023-07-22T09:00:38;8.75;;;5.30;;
54679;SDS011;40578;53.178;5.846;2023-07-22T09:05:31;9.20;;;5.25;;
54679;SDS011;40578;53.178;5.846;2023-07-22T09:07:58;13.50;;;7.28;;
54679;SDS011;40578;53.178;5.846;2023-07-22T09:10:26;13.40;;;8.32;;
54679;SDS011;40578;53.178;5.846;2023-07-22T09:12:53;21.20;;;12.77;;
54679;SDS011;40578;53.178;5.846;2023-07-22T09:15:19;25.20;;;13.20;;
54679;SDS011;40578;53.178;5.846;2023-07-22T09:20:12;23.95;;;14.02;;
54679;SDS011;40578;53.178;5.846;2023-07-22T09:22:45;23.30;;;12.77;;
54679;SDS011;40578;53.178;5.846;2023-07-22T09:25:16;21.52;;;13.13;;
54679;SDS011;40578;53.178;5.846;2023-07-22T09:27:44;23.30;;;12.32;;
54679;SDS011;40578;53.178;5.846;2023-07-22T09:30:20;24.15;;;13.75;;
54679;SDS011;40578;53.178;5.846;2023-07-22T09:32:46;21.65;;;13.07;;
54679;SDS011;40578;53.178;5.846;2023-07-22T09:35:12;22.07;;;13.57;;
54679;SDS011;40578;53.178;5.846;2023-07-22T09:37:38;17.23;;;11.03;;
54679;SDS011;40578;53.178;5.846;2023-07-22T09:40:19;15.33;;;9.50;;
54679;SDS011;40578;53.178;5.846;2023-07-22T09:42:46;12.45;;;8.45;;
54679;SDS011;40578;53.178;5.846;2023-07-22T09:45:18;12.23;;;7.57;;
54679;SDS011;40578;53.178;5.846;2023-07-22T09:47:47;11.55;;;7.00;;
54679;SDS011;40578;53.178;5.846;2023-07-22T09:50:15;14.43;;;8.75;;
54679;SDS011;40578;53.178;5.846;2023-07-22T09:52:44;12.95;;;8.15;;
54679;SDS011;40578;53.178;5.846;2023-07-22T09:55:17;13.93;;;8.23;;
54679;SDS011;40578;53.178;5.846;2023-07-22T09:57:45;11.43;;;7.20;;
54679;SDS011;40578;53.178;5.846;2023-07-22T10:00:13;10.50;;;6.75;;
54679;SDS011;40578;53.178;5.846;2023-07-22T10:02:40;10.32;;;7.05;;
54679;SDS011;40578;53.178;5.846;2023-07-22T10:05:12;9.13;;;6.70;;
54679;SDS011;40578;53.178;5.846;2023-07-22T10:07:44;9.65;;;6.47;;
54679;SDS011;40578;53.178;5.846;2023-07-22T10:10:33;8.82;;;6.00;;
54679;SDS011;40578;53.178;5.846;2023-07-22T10:13:08;7.35;;;5.50;;
54679;SDS011;40578;53.178;5.846;2023-07-22T10:15:35;7.85;;;5.85;;
54679;SDS011;40578;53.178;5.846;2023-07-22T10:18:02;8.80;;;6.20;;
54679;SDS011;40578;53.178;5.846;2023-07-22T10:20:29;9.23;;;6.38;;
54679;SDS011;40578;53.178;5.846;2023-07-22T10:22:55;8.95;;;6.10;;
54679;SDS011;40578;53.178;5.846;2023-07-22T10:25:21;8.65;;;6.20;;
54679;SDS011;40578;53.178;5.846;2023-07-22T10:27:48;12.57;;;7.13;;
54679;SDS011;40578;53.178;5.846;2023-07-22T10:30:15;10.55;;;6.80;;
54679;SDS011;40578;53.178;5.846;2023-07-22T10:32:43;9.77;;;6.53;;
54679;SDS011;40578;53.178;5.846;2023-07-22T10:35:12;8.98;;;6.75;;
54679;SDS011;40578;53.178;5.846;2023-07-22T10:37:44;10.70;;;7.35;;
54679;SDS011;40578;53.178;5.846;2023-07-22T10:40:17;9.35;;;6.97;;
54679;SDS011;40578;53.178;5.846;2023-07-22T10:43:04;10.45;;;7.28;;
54679;SDS011;40578;53.178;5.846;2023-07-22T10:45:39;10.40;;;6.78;;
54679;SDS011;40578;53.178;5.846;2023-07-22T10:48:07;9.88;;;7.15;;
54679;SDS011;40578;53.178;5.846;2023-07-22T11:06:30;10.02;;;7.25;;
54679;SDS011;40578;53.178;5.846;2023-07-22T11:08:55;11.27;;;6.90;;
54679;SDS011;40578;53.178;5.846;2023-07-22T11:11:31;28.73;;;8.33;;
54679;SDS011;40578;53.178;5.846;2023-07-22T11:14:15;18.20;;;8.27;;
54679;SDS011;40578;53.178;5.846;2023-07-22T11:16:42;15.63;;;8.27;;
54679;SDS011;40578;53.178;5.846;2023-07-22T11:19:09;10.38;;;7.35;;
54679;SDS011;40578;53.178;5.846;2023-07-22T11:21:35;12.97;;;7.77;;
54679;SDS011;40578;53.178;5.846;2023-07-22T11:24:02;14.27;;;8.38;;
54679;SDS011;40578;53.178;5.846;2023-07-22T11:26:29;13.48;;;8.68;;
54679;SDS011;40578;53.178;5.846;2023-07-22T11:28:56;12.75;;;9.05;;
54679;SDS011;40578;53.178;5.846;2023-07-22T11:31:22;15.35;;;8.25;;
54679;SDS011;40578;53.178;5.846;2023-07-22T11:33:47;14.07;;;7.63;;
54679;SDS011;40578;53.178;5.846;2023-07-22T11:36:13;8.57;;;6.57;;
54679;SDS011;40578;53.178;5.846;2023-07-22T11:38:39;11.90;;;7.13;;
54679;SDS011;40578;53.178;5.846;2023-07-22T11:41:05;9.80;;;6.20;;
54679;SDS011;40578;53.178;5.846;2023-07-22T11:43:31;8.57;;;6.28;;
54679;SDS011;40578;53.178;5.846;2023-07-22T11:45:57;7.95;;;5.50;;
54679;SDS011;40578;53.178;5.846;2023-07-22T11:48:22;8.50;;;5.43;;
54679;SDS011;40578;53.178;5.846;2023-07-22T11:50:48;9.33;;;5.30;;
54679;SDS011;40578;53.178;5.846;2023-07-22T11:53:14;8.40;;;5.80;;
54679;SDS011;40578;53.178;5.846;2023-07-22T11:55:40;7.03;;;5.03;;
54679;SDS011;40578;53.178;5.846;2023-07-22T11:58:06;8.65;;;6.00;;
54679;SDS011;40578;53.178;5.846;2023-07-22T12:00:33;9.10;;;5.90;;
54679;SDS011;40578;53.178;5.846;2023-07-22T12:03:05;8.23;;;5.78;;
54679;SDS011;40578;53.178;5.846;2023-07-22T12:05:30;8.43;;;5.10;;
54679;SDS011;40578;53.178;5.846;2023-07-22T12:08:03;8.05;;;5.57;;
54679;SDS011;40578;53.178;5.846;2023-07-22T12:10:29;8.55;;;5.75;;
54679;SDS011;40578;53.178;5.846;2023-07-22T12:12:54;7.83;;;5.67;;
54679;SDS011;40578;53.178;5.846;2023-07-22T12:15:25;9.90;;;6.30;;
54679;SDS011;40578;53.178;5.846;2023-07-22T12:22:43;7.53;;;5.32;;
54679;SDS011;40578;53.178;5.846;2023-07-22T12:25:09;6.73;;;5.60;;
54679;SDS011;40578;53.178;5.846;2023-07-22T12:27:36;9.35;;;6.15;;
54679;SDS011;40578;53.178;5.846;2023-07-22T12:30:02;9.15;;;7.05;;
54679;SDS011;40578;53.178;5.846;2023-07-22T12:32:28;9.98;;;7.28;;
54679;SDS011;40578;53.178;5.846;2023-07-22T12:34:53;10.57;;;7.80;;
54679;SDS011;40578;53.178;5.846;2023-07-22T12:37:19;8.67;;;6.63;;
54679;SDS011;40578;53.178;5.846;2023-07-22T12:39:45;10.77;;;6.80;;
54679;SDS011;40578;53.178;5.846;2023-07-22T12:42:10;12.23;;;7.50;;
54679;SDS011;40578;53.178;5.846;2023-07-22T12:44:36;10.07;;;6.10;;
54679;SDS011;40578;53.178;5.846;2023-07-22T12:47:02;8.17;;;4.67;;
54679;SDS011;40578;53.178;5.846;2023-07-22T12:49:27;7.13;;;4.63;;
54679;SDS011;40578;53.178;5.846;2023-07-22T12:51:53;9.27;;;4.90;;
54679;SDS011;40578;53.178;5.846;2023-07-22T12:54:18;8.83;;;5.27;;
54679;SDS011;40578;53.178;5.846;2023-07-22T12:56:44;8.43;;;4.73;;
54679;SDS011;40578;53.178;5.846;2023-07-22T12:59:10;11.50;;;5.30;;
54679;SDS011;40578;53.178;5.846;2023-07-22T13:01:35;10.37;;;5.10;;
54679;SDS011;40578;53.178;5.846;2023-07-22T13:04:07;7.32;;;5.07;;
54679;SDS011;40578;53.178;5.846;2023-07-22T13:06:32;8.13;;;4.23;;
54679;SDS011;40578;53.178;5.846;2023-07-22T13:08:58;8.70;;;3.97;;
54679;SDS011;40578;53.178;5.846;2023-07-22T13:11:23;9.73;;;4.40;;
54679;SDS011;40578;53.178;5.846;2023-07-22T13:13:49;8.13;;;3.90;;
54679;SDS011;40578;53.178;5.846;2023-07-22T13:16:15;9.10;;;4.50;;
54679;SDS011;40578;53.178;5.846;2023-07-22T13:18:40;9.13;;;4.87;;
54679;SDS011;40578;53.178;5.846;2023-07-22T13:21:06;10.03;;;4.83;;
54679;SDS011;40578;53.178;5.846;2023-07-22T13:23:32;10.00;;;5.27;;
54679;SDS011;40578;53.178;5.846;2023-07-22T13:25:58;9.70;;;4.85;;
54679;SDS011;40578;53.178;5.846;2023-07-22T13:28:24;11.40;;;4.80;;
54679;SDS011;40578;53.178;5.846;2023-07-22T13:30:49;10.97;;;4.90;;
54679;SDS011;40578;53.178;5.846;2023-07-22T13:33:15;7.30;;;4.63;;
54679;SDS011;40578;53.178;5.846;2023-07-22T13:35:40;10.07;;;4.60;;
54679;SDS011;40578;53.178;5.846;2023-07-22T13:38:06;7.70;;;4.30;;
54679;SDS011;40578;53.178;5.846;2023-07-22T13:40:32;7.75;;;5.10;;
54679;SDS011;40578;53.178;5.846;2023-07-22T13:42:58;9.30;;;4.10;;
54679;SDS011;40578;53.178;5.846;2023-07-22T13:45:23;10.07;;;4.63;;
54679;SDS011;40578;53.178;5.846;2023-07-22T13:47:49;8.50;;;4.77;;
54679;SDS011;40578;53.178;5.846;2023-07-22T13:50:14;10.63;;;4.70;;
54679;SDS011;40578;53.178;5.846;2023-07-22T13:52:40;10.23;;;5.33;;
54679;SDS011;40578;53.178;5.846;2023-07-22T13:55:06;7.47;;;5.07;;
54679;SDS011;40578;53.178;5.846;2023-07-22T13:57:33;9.05;;;4.60;;
54679;SDS011;40578;53.178;5.846;2023-07-22T13:59:58;13.57;;;5.73;;
54679;SDS011;40578;53.178;5.846;2023-07-22T14:02:24;12.63;;;5.77;;
54679;SDS011;40578;53.178;5.846;2023-07-22T14:04:49;9.47;;;5.23;;
54679;SDS011;40578;53.178;5.846;2023-07-22T14:07:15;9.93;;;6.27;;
54679;SDS011;40578;53.178;5.846;2023-07-22T14:12:08;9.77;;;5.40;;
54679;SDS011;40578;53.178;5.846;2023-07-22T14:14:34;11.30;;;5.88;;
54679;SDS011;40578;53.178;5.846;2023-07-22T14:16:59;7.87;;;5.17;;
54679;SDS011;40578;53.178;5.846;2023-07-22T14:19:25;11.17;;;5.20;;
54679;SDS011;40578;53.178;5.846;2023-07-22T14:21:51;11.27;;;5.93;;
54679;SDS011;40578;53.178;5.846;2023-07-22T14:24:16;10.60;;;5.63;;
54679;SDS011;40578;53.178;5.846;2023-07-22T14:26:42;9.03;;;5.20;;
54679;SDS011;40578;53.178;5.846;2023-07-22T14:29:07;8.83;;;5.00;;
54679;SDS011;40578;53.178;5.846;2023-07-22T14:31:33;7.70;;;4.50;;
54679;SDS011;40578;53.178;5.846;2023-07-22T14:33:59;8.87;;;4.70;;
54679;SDS011;40578;53.178;5.846;2023-07-22T14:36:24;7.27;;;4.30;;
54679;SDS011;40578;53.178;5.846;2023-07-22T14:38:50;7.23;;;4.23;;
54679;SDS011;40578;53.178;5.846;2023-07-22T14:41:15;9.07;;;4.20;;
54679;SDS011;40578;53.178;5.846;2023-07-22T14:43:41;6.50;;;4.00;;
54679;SDS011;40578;53.178;5.846;2023-07-22T14:46:07;7.97;;;4.50;;
54679;SDS011;40578;53.178;5.846;2023-07-22T14:48:32;8.03;;;4.03;;
54679;SDS011;40578;53.178;5.846;2023-07-22T14:50:58;6.60;;;3.57;;
54679;SDS011;40578;53.178;5.846;2023-07-22T14:53:23;6.63;;;3.13;;
54679;SDS011;40578;53.178;5.846;2023-07-22T14:55:49;7.37;;;3.00;;
54679;SDS011;40578;53.178;5.846;2023-07-22T14:58:15;6.87;;;3.03;;
54679;SDS011;40578;53.178;5.846;2023-07-22T15:00:40;7.77;;;3.07;;
54679;SDS011;40578;53.178;5.846;2023-07-22T15:03:06;10.40;;;3.67;;
54679;SDS011;40578;53.178;5.846;2023-07-22T15:05:32;6.65;;;3.83;;
54679;SDS011;40578;53.178;5.846;2023-07-22T15:07:58;6.80;;;4.00;;
54679;SDS011;40578;53.178;5.846;2023-07-22T15:10:23;9.03;;;4.10;;
54679;SDS011;40578;53.178;5.846;2023-07-22T15:12:49;6.43;;;3.60;;
54679;SDS011;40578;53.178;5.846;2023-07-22T15:15:15;8.67;;;3.70;;
54679;SDS011;40578;53.178;5.846;2023-07-22T15:17:40;8.43;;;4.27;;
54679;SDS011;40578;53.178;5.846;2023-07-22T15:20:06;7.93;;;3.73;;
54679;SDS011;40578;53.178;5.846;2023-07-22T15:22:32;6.50;;;3.55;;